KTIX/TIX METAR and TAF weather

Enter ICAO airport designator
Station Type Date Time Source
KTIX METAR 2020/07/06 00:47 UTC NOAA

KTIX 060047Z 00000KT 7SM SCT120 22/22 A2999


Station Type Date Time Source
KTIX Decoded METAR 2020/07/06 00:47 UTC NOAA

Titusville, FL, United States (KTIX) 28-31N 080-48W
Jul 05, 2020 - 08:47 PM EDT / 2020.07.06 0047 UTC
Wind: Calm:0
Visibility: 7 mile(s):0
Sky conditions: partly cloudy
Temperature: 71 F (22 C)
Dew Point: 71 F (22 C)
Relative Humidity: 100%
Pressure (altimeter): 29.99 in. Hg (1015 hPa)
ob: KTIX 060047Z 00000KT 7SM SCT120 22/22 A2999
cycle: 1

Station Type Date Time Source
KTIX TAF 2020/07/06 06:28 UTC NOAA

TAF KTIX 060526Z 0606/0706 19004KT P6SM FEW015 SCT120 BKN250
FM061400 21006KT P6SM SCT030 SCT150 BKN250
FM061700 15007KT P6SM SCT035 SCT060 BKN250
FM061800 15008KT P6SM VCTS SCT035CB BKN060
TEMPO 0618/0622 VRB18G25KT 2SM +TSRA BKN020CB BKN050
FM062200 15006KT P6SM VCSH SCT035 BKN100
FM070200 20004KT P6SM SCT120 BKN250
AMD NOT SKED 0606/0611

Example: see airport list